Terminal Aerodrome Forecast
Issued by NWS

Home | Current Version | Previous Version | Text Only | Print | Product List | Glossary On
Versions: 1 2 3 4 5 6 7 8 9 10 11 12 13 14 15 16 17 18 19 20 21 22 23
000
FTUS43 KBIS 110546 AAA
TAFMOT
TAF AMD
KMOT 110546Z 1106/1206 29033G42KT P6SM VCSH BKN080
     FM110900 31028G38KT P6SM VCSH OVC015
     FM111400 31018G27KT P6SM -SN OVC015
     FM111800 32016G24KT P6SM OVC015
     FM111900 32015KT P6SM OVC020=

USA.gov is the U.S. government's official web portal to all federal, state and local government web resources and services.